Terminal Aerodrome Forecast
Issued by NWS Los Angeles, CA

Home | Current Version | Previous Version | Text Only | Print | Product List | Glossary On
Versions: 1 2 3 4 5 6 7 8 9 10 11 12 13 14 15 16 17 18 19
220
FTUS46 KLOX 051132
TAFSMX
TAF
KSMX 051132Z 0512/0612 31010KT P6SM SKC
     FM051500 03008KT P6SM SKC
     FM051700 33006KT P6SM SCT250
     FM052000 32015KT P6SM SCT250
     FM060300 VRB03KT P6SM SCT250=

USA.gov is the U.S. government's official web portal to all federal, state and local government web resources and services.